Погода Новы-Сончна 2 недели

Малопольское воеводство, Польша

16 - 29 июля
  • 16июля
    Сегодня
    +19°
    +33°
    Пасмурно, ливень
    ВремяПогодаТемператураВлажностьДавлениеВетер, м/сВероятность осадков
    02:00Ясно и безоблачно+20°C94 %731 мм0.9 м/с2 %
    05:00Ясно и безоблачно+19°C93 %731 мм0.8 м/с2 %
    08:00Практически безоблачно+23°C76 %731 мм1.1 м/с2 %
    11:00Ясно и безоблачно+30°C55 %731 мм2.0 м/с8 %
    14:00Пасмурно, ливень+31°C63 %732 мм3.0 м/с35 %
    17:00Облачно с прояснениями+28°C64 %730 мм2.2 м/с46 %
    20:00Практически безоблачно+26°C80 %731 мм1.1 м/с6 %
    23:00Ясно и безоблачно+23°C86 %732 мм1.3 м/с2 %
  • 17июля
    Среда
    +18°
    +27°
    Облачно с прояснениями
    ВремяПогодаТемператураВлажностьДавлениеВетер, м/сВероятность осадков
    02:00Ясно и безоблачно+21°C92 %733 мм1.0 м/с2 %
    05:00Практически безоблачно+20°C96 %733 мм0.6 м/с2 %
    08:00Небольшая облачность+22°C84 %735 мм1.1 м/с8 %
    11:00Облачно с прояснениями+25°C74 %736 мм1.6 м/с41 %
    14:00Облачно с прояснениями+27°C67 %735 мм2.0 м/с47 %
    17:00Небольшая облачность, возможен дождь с грозой+27°C62 %735 мм1.8 м/с48 %
    20:00Облачно с прояснениями+24°C87 %735 мм1.0 м/с49 %
    23:00Практически безоблачно+22°C92 %736 мм1.3 м/с13 %
  • 18июля
    Четверг
    +16°
    +27°
    Облачно с прояснениями
    ВремяПогодаТемператураВлажностьДавлениеВетер, м/сВероятность осадков
    02:00Небольшая облачность+20°C97 %736 мм1.3 м/с19 %
    05:00Пасмурно, сплошная облачность+19°C93 %736 мм0.7 м/с19 %
    08:00Практически безоблачно+20°C85 %737 мм1.3 м/с21 %
    11:00Ясно и безоблачно+23°C64 %737 мм1.7 м/с16 %
    14:00Облачно с прояснениями+26°C50 %737 мм2.1 м/с19 %
    17:00Практически безоблачно+26°C49 %736 мм2.3 м/с12 %
    20:00Практически безоблачно+24°C72 %736 мм1.1 м/с5 %
    23:00Практически безоблачно+21°C71 %737 мм1.1 м/с2 %
  • 19июля
    Пятница
    +14°
    +27°
    Облачно с прояснениями
    ВремяПогодаТемператураВлажностьДавлениеВетер, м/сВероятность осадков
    02:00Небольшая облачность+19°C82 %737 мм0.9 м/с2 %
    05:00Практически безоблачно+17°C83 %736 мм0.5 м/с2 %
    08:00Облачно с прояснениями+19°C71 %737 мм1.0 м/с2 %
    11:00Облачно с прояснениями+24°C54 %737 мм1.7 м/с7 %
    14:00Облачно с прояснениями+26°C50 %736 мм2.4 м/с11 %
    17:00Небольшая облачность+26°C49 %735 мм2.4 м/с9 %
    20:00Практически безоблачно+23°C71 %735 мм1.3 м/с3 %
    23:00Небольшая облачность+20°C63 %735 мм1.2 м/с2 %
  • 20июля
    Суббота
    +14°
    +27°
    Небольшая облачность
    ВремяПогодаТемператураВлажностьДавлениеВетер, м/сВероятность осадков
    02:00Ясно и безоблачно+18°C81 %735 мм0.8 м/с2 %
    05:00Ясно и безоблачно+15°C85 %734 мм0.5 м/с2 %
    08:00Ясно и безоблачно+19°C67 %734 мм1.0 м/с2 %
    11:00Облачно с прояснениями+24°C53 %734 мм2.0 м/с3 %
    14:00Небольшая облачность+25°C47 %734 мм2.4 м/с11 %
    17:00Практически безоблачно+25°C47 %733 мм2.3 м/с10 %
    20:00Ясно и безоблачно+22°C71 %732 мм1.0 м/с2 %
    23:00Ясно и безоблачно+19°C79 %732 мм1.2 м/с2 %
Мы используем cookies
Соглашаюсь